Time,TemperatureF,DewpointF,PressureIn,WindDirection,WindDirectionDegrees,WindSpeedMPH,WindSpeedGustMPH,Humidity,HourlyPrecipIn,Conditions,Clouds,dailyrainin,SoftwareType,DateUTC
2017-06-28 00:03:00,55.9,51.0,29.94,North,355,0.0,4.0,84,0.00,,,0.00,weatherlink.com 1.10,2017-06-28 07:03:00,
2017-06-28 00:18:00,55.7,51.0,29.94,North,355,0.0,3.0,84,0.00,,,0.00,weatherlink.com 1.10,2017-06-28 07:18:00,
2017-06-28 00:33:00,55.4,51.0,29.95,North,350,0.0,3.0,84,0.00,,,0.00,weatherlink.com 1.10,2017-06-28 07:33:00,
2017-06-28 00:48:00,55.0,50.0,29.94,North,350,0.0,0.0,84,0.00,,,0.00,weatherlink.com 1.10,2017-06-28 07:48:00,
2017-06-28 01:03:00,54.5,50.0,29.94,NNW,333,0.0,3.0,86,0.00,,,0.00,weatherlink.com 1.10,2017-06-28 08:03:00,
2017-06-28 01:18:00,54.5,50.0,29.95,NNW,340,0.0,3.0,86,0.00,,,0.00,weatherlink.com 1.10,2017-06-28 08:18:00,
2017-06-28 01:33:00,54.4,50.0,29.95,NNW,340,0.0,0.0,86,0.00,,,0.00,weatherlink.com 1.10,2017-06-28 08:33:00,
2017-06-28 01:48:00,54.2,50.0,29.95,NNW,340,0.0,0.0,86,0.00,,,0.00,weatherlink.com 1.10,2017-06-28 08:48:00,
2017-06-28 02:03:00,53.9,50.0,29.95,NNW,340,0.0,0.0,86,0.00,,,0.00,weatherlink.com 1.10,2017-06-28 09:03:00,
2017-06-28 02:18:00,53.8,50.0,29.95,NNW,340,0.0,0.0,87,0.00,,,0.00,weatherlink.com 1.10,2017-06-28 09:18:00,
2017-06-28 02:33:00,53.3,50.0,29.95,NNW,340,0.0,0.0,87,0.00,,,0.00,weatherlink.com 1.10,2017-06-28 09:33:00,
2017-06-28 02:49:00,52.8,49.0,29.95,NNW,340,0.0,0.0,87,0.00,,,0.00,weatherlink.com 1.10,2017-06-28 09:49:00,
2017-06-28 03:03:00,52.3,49.0,29.95,NNW,340,0.0,0.0,88,0.00,,,0.00,weatherlink.com 1.10,2017-06-28 10:03:00,
2017-06-28 03:18:00,52.2,49.0,29.96,NNW,340,0.0,0.0,89,0.00,,,0.00,weatherlink.com 1.10,2017-06-28 10:18:00,
2017-06-28 03:33:00,51.9,49.0,29.96,NNW,340,0.0,0.0,89,0.00,,,0.00,weatherlink.com 1.10,2017-06-28 10:33:00,
2017-06-28 03:48:00,51.7,49.0,29.96,NNW,340,0.0,0.0,89,0.00,,,0.00,weatherlink.com 1.10,2017-06-28 10:48:00,
2017-06-28 04:03:00,51.9,49.0,29.96,NNW,340,0.0,0.0,90,0.00,,,0.00,weatherlink.com 1.10,2017-06-28 11:03:00,
2017-06-28 04:18:00,52.3,50.0,29.97,NNW,340,0.0,0.0,91,0.00,,,0.00,weatherlink.com 1.10,2017-06-28 11:18:00,
2017-06-28 04:33:00,52.6,50.0,29.97,NNW,340,0.0,0.0,91,0.00,,,0.00,weatherlink.com 1.10,2017-06-28 11:33:00,
2017-06-28 04:48:00,53.1,51.0,29.97,NNW,340,0.0,0.0,91,0.00,,,0.00,weatherlink.com 1.10,2017-06-28 11:48:00,
2017-06-28 05:03:00,53.3,51.0,29.97,NNW,340,0.0,0.0,90,0.00,,,0.00,weatherlink.com 1.10,2017-06-28 12:03:00,
2017-06-28 05:18:00,53.6,50.0,29.97,WSW,246,0.0,2.0,88,0.00,,,0.00,weatherlink.com 1.10,2017-06-28 12:18:00,
2017-06-28 05:33:00,54.1,50.0,29.97,WSW,246,0.0,2.0,86,0.00,,,0.00,weatherlink.com 1.10,2017-06-28 12:33:00,
2017-06-28 05:48:00,54.4,50.0,29.98,SW,234,0.0,1.0,84,0.00,,,0.00,weatherlink.com 1.10,2017-06-28 12:48:00,
2017-06-28 06:03:00,54.7,50.0,29.98,SW,234,0.0,0.0,83,0.00,,,0.00,weatherlink.com 1.10,2017-06-28 13:03:00,
2017-06-28 06:18:00,54.8,50.0,29.99,SW,234,0.0,2.0,83,0.00,,,0.00,weatherlink.com 1.10,2017-06-28 13:18:00,
2017-06-28 06:34:00,55.0,50.0,29.98,SW,234,0.0,1.0,83,0.00,,,0.00,weatherlink.com 1.10,2017-06-28 13:34:00,
2017-06-28 06:49:00,55.3,50.0,29.99,SW,232,0.0,2.0,82,0.00,,,0.00,weatherlink.com 1.10,2017-06-28 13:49:00,
2017-06-28 07:04:00,55.6,50.0,29.99,SW,232,0.0,0.0,81,0.00,,,0.00,weatherlink.com 1.10,2017-06-28 14:04:00,
2017-06-28 07:19:00,56.0,50.0,29.99,SW,232,0.0,0.0,81,0.00,,,0.00,weatherlink.com 1.10,2017-06-28 14:19:00,
2017-06-28 07:34:00,56.6,51.0,29.99,SW,232,0.0,0.0,80,0.00,,,0.00,weatherlink.com 1.10,2017-06-28 14:34:00,
2017-06-28 07:49:00,57.0,51.0,30.00,SW,232,0.0,1.0,79,0.00,,,0.00,weatherlink.com 1.10,2017-06-28 14:49:00,
2017-06-28 08:04:00,57.6,51.0,29.99,SW,232,0.0,0.0,78,0.00,,,0.00,weatherlink.com 1.10,2017-06-28 15:04:00,
2017-06-28 08:19:00,58.9,52.0,30.00,SW,223,2.0,2.0,77,0.00,,,0.00,weatherlink.com 1.10,2017-06-28 15:19:00,
2017-06-28 08:34:00,59.5,51.0,30.00,SW,219,0.0,2.0,73,0.00,,,0.00,weatherlink.com 1.10,2017-06-28 15:34:00,
2017-06-28 08:49:00,59.3,51.0,30.00,SW,219,0.0,2.0,74,0.00,,,0.00,weatherlink.com 1.10,2017-06-28 15:49:00,
2017-06-28 09:04:00,59.3,51.0,30.00,WSW,243,1.0,3.0,73,0.00,,,0.00,weatherlink.com 1.10,2017-06-28 16:04:00,
2017-06-28 09:19:00,59.6,51.0,30.00,SW,225,0.0,3.0,73,0.00,,,0.00,weatherlink.com 1.10,2017-06-28 16:19:00,
2017-06-28 09:34:00,59.6,51.0,30.01,South,185,0.0,2.0,72,0.00,,,0.00,weatherlink.com 1.10,2017-06-28 16:34:00,
2017-06-28 09:49:00,59.6,51.0,30.01,SW,217,0.0,3.0,73,0.00,,,0.00,weatherlink.com 1.10,2017-06-28 16:49:00,
2017-06-28 10:04:00,59.8,51.0,30.01,WSW,240,0.0,4.0,72,0.00,,,0.00,weatherlink.com 1.10,2017-06-28 17:04:00,
2017-06-28 10:19:00,60.1,51.0,30.01,SW,214,0.0,4.0,72,0.00,,,0.00,weatherlink.com 1.10,2017-06-28 17:19:00,
2017-06-28 10:34:00,61.3,52.0,30.01,South,182,1.0,7.0,71,0.00,,,0.00,weatherlink.com 1.10,2017-06-28 17:34:00,
2017-06-28 10:49:00,62.7,52.0,30.01,SW,225,0.0,4.0,68,0.00,,,0.00,weatherlink.com 1.10,2017-06-28 17:49:00,
2017-06-28 11:04:00,62.9,51.0,30.01,SW,236,0.0,6.0,66,0.00,,,0.00,weatherlink.com 1.10,2017-06-28 18:04:00,
2017-06-28 11:19:00,63.4,52.0,30.01,SSE,165,4.0,5.0,67,0.00,,,0.00,weatherlink.com 1.10,2017-06-28 18:19:00,
2017-06-28 11:34:00,63.4,51.0,30.01,SSW,199,0.0,3.0,64,0.00,,,0.00,weatherlink.com 1.10,2017-06-28 18:34:00,
2017-06-28 11:49:00,63.7,52.0,30.01,SW,236,1.0,3.0,65,0.00,,,0.00,weatherlink.com 1.10,2017-06-28 18:49:00,
2017-06-28 12:04:00,63.9,52.0,30.02,SW,219,0.0,3.0,65,0.00,,,0.00,weatherlink.com 1.10,2017-06-28 19:04:00,
2017-06-28 12:19:00,63.9,52.0,30.02,SW,218,0.0,1.0,65,0.00,,,0.00,weatherlink.com 1.10,2017-06-28 19:19:00,
2017-06-28 12:34:00,63.2,52.0,30.02,SSW,205,2.0,4.0,67,0.00,,,0.00,weatherlink.com 1.10,2017-06-28 19:34:00,
2017-06-28 12:49:00,63.7,52.0,30.02,WSW,239,4.0,4.0,67,0.00,,,0.00,weatherlink.com 1.10,2017-06-28 19:49:00,
2017-06-28 13:04:00,64.5,52.0,30.02,South,182,0.0,5.0,64,0.00,,,0.00,weatherlink.com 1.10,2017-06-28 20:04:00,
2017-06-28 13:19:00,65.0,52.0,30.02,WSW,242,0.0,4.0,63,0.00,,,0.00,weatherlink.com 1.10,2017-06-28 20:19:00,
2017-06-28 13:49:00,65.5,52.0,30.02,SW,223,3.0,6.0,62,0.00,,,0.00,weatherlink.com 1.10,2017-06-28 20:49:00,
2017-06-28 14:04:00,65.3,52.0,30.02,WSW,247,8.0,8.0,63,0.00,,,0.00,weatherlink.com 1.10,2017-06-28 21:04:00,
2017-06-28 14:19:00,64.8,52.0,30.02,WSW,243,2.0,4.0,63,0.00,,,0.00,weatherlink.com 1.10,2017-06-28 21:19:00,
2017-06-28 14:34:00,65.6,52.0,30.02,SW,229,0.0,5.0,61,0.00,,,0.00,weatherlink.com 1.10,2017-06-28 21:34:00,
2017-06-28 14:49:00,65.5,52.0,30.02,WSW,242,1.0,4.0,63,0.00,,,0.00,weatherlink.com 1.10,2017-06-28 21:49:00,
2017-06-28 15:04:00,66.1,53.0,30.02,WSW,246,0.0,5.0,62,0.00,,,0.00,weatherlink.com 1.10,2017-06-28 22:04:00,
2017-06-28 15:19:00,65.8,52.0,30.02,SSW,213,0.0,5.0,62,0.00,,,0.00,weatherlink.com 1.10,2017-06-28 22:19:00,
2017-06-28 15:34:00,65.8,53.0,30.02,SSW,192,2.0,8.0,64,0.00,,,0.00,weatherlink.com 1.10,2017-06-28 22:34:00,
2017-06-28 15:49:00,65.6,53.0,30.02,South,190,0.0,3.0,64,0.00,,,0.00,weatherlink.com 1.10,2017-06-28 22:49:00,
2017-06-28 16:04:00,65.8,53.0,30.02,SSW,203,0.0,2.0,63,0.00,,,0.00,weatherlink.com 1.10,2017-06-28 23:04:00,